sensor_id;sensor_type;location;lat;lon;timestamp;P1;durP1;ratioP1;P2;durP2;ratioP2
32329;SDS011;18807;52.434;13.238;2024-03-06T00:07:01;23.35;;;12.15;;
32329;SDS011;18807;52.434;13.238;2024-03-06T00:14:37;25.90;;;12.80;;
32329;SDS011;18807;52.434;13.238;2024-03-06T00:22:11;26.15;;;13.13;;
32329;SDS011;18807;52.434;13.238;2024-03-06T00:29:47;21.02;;;11.55;;
32329;SDS011;18807;52.434;13.238;2024-03-06T00:37:21;26.38;;;13.00;;
32329;SDS011;18807;52.434;13.238;2024-03-06T00:44:57;23.00;;;13.07;;
32329;SDS011;18807;52.434;13.238;2024-03-06T00:52:31;22.30;;;12.23;;
32329;SDS011;18807;52.434;13.238;2024-03-06T01:00:09;20.27;;;12.43;;
32329;SDS011;18807;52.434;13.238;2024-03-06T01:07:44;22.08;;;11.90;;
32329;SDS011;18807;52.434;13.238;2024-03-06T01:15:19;21.02;;;11.90;;
32329;SDS011;18807;52.434;13.238;2024-03-06T01:22:53;24.23;;;12.32;;
32329;SDS011;18807;52.434;13.238;2024-03-06T01:30:32;26.42;;;13.07;;
32329;SDS011;18807;52.434;13.238;2024-03-06T01:38:06;20.90;;;11.88;;
32329;SDS011;18807;52.434;13.238;2024-03-06T01:45:43;18.67;;;11.80;;
32329;SDS011;18807;52.434;13.238;2024-03-06T01:53:18;24.63;;;13.05;;
32329;SDS011;18807;52.434;13.238;2024-03-06T02:00:54;21.58;;;12.10;;
32329;SDS011;18807;52.434;13.238;2024-03-06T02:08:28;21.33;;;12.10;;
32329;SDS011;18807;52.434;13.238;2024-03-06T02:16:05;23.83;;;12.50;;
32329;SDS011;18807;52.434;13.238;2024-03-06T02:23:42;25.65;;;13.20;;
32329;SDS011;18807;52.434;13.238;2024-03-06T02:31:15;20.67;;;11.07;;
32329;SDS011;18807;52.434;13.238;2024-03-06T02:38:52;19.83;;;11.07;;
32329;SDS011;18807;52.434;13.238;2024-03-06T02:46:26;24.33;;;12.90;;
32329;SDS011;18807;52.434;13.238;2024-03-06T02:54:02;21.27;;;11.50;;
32329;SDS011;18807;52.434;13.238;2024-03-06T03:01:37;22.70;;;13.00;;
32329;SDS011;18807;52.434;13.238;2024-03-06T03:09:13;22.30;;;12.43;;
32329;SDS011;18807;52.434;13.238;2024-03-06T03:16:47;20.50;;;11.27;;
32329;SDS011;18807;52.434;13.238;2024-03-06T03:31:56;26.05;;;12.02;;
32329;SDS011;18807;52.434;13.238;2024-03-06T03:39:30;22.15;;;12.57;;
32329;SDS011;18807;52.434;13.238;2024-03-06T03:47:07;22.30;;;12.52;;
32329;SDS011;18807;52.434;13.238;2024-03-06T03:54:41;21.65;;;11.75;;
32329;SDS011;18807;52.434;13.238;2024-03-06T04:09:50;23.42;;;12.23;;
32329;SDS011;18807;52.434;13.238;2024-03-06T04:17:24;19.75;;;11.63;;
32329;SDS011;18807;52.434;13.238;2024-03-06T04:25:00;23.48;;;12.27;;
32329;SDS011;18807;52.434;13.238;2024-03-06T04:32:36;22.77;;;11.27;;
32329;SDS011;18807;52.434;13.238;2024-03-06T04:40:13;28.02;;;12.02;;
32329;SDS011;18807;52.434;13.238;2024-03-06T04:47:50;22.08;;;12.13;;
32329;SDS011;18807;52.434;13.238;2024-03-06T05:03:03;22.90;;;12.80;;
32329;SDS011;18807;52.434;13.238;2024-03-06T05:10:55;24.13;;;11.80;;
32329;SDS011;18807;52.434;13.238;2024-03-06T05:18:48;25.27;;;11.98;;
32329;SDS011;18807;52.434;13.238;2024-03-06T05:26:40;23.92;;;13.18;;
32329;SDS011;18807;52.434;13.238;2024-03-06T05:34:33;20.88;;;11.25;;
32329;SDS011;18807;52.434;13.238;2024-03-06T05:42:24;22.77;;;13.07;;
32329;SDS011;18807;52.434;13.238;2024-03-06T05:50:17;18.23;;;10.70;;
32329;SDS011;18807;52.434;13.238;2024-03-06T05:58:08;23.33;;;11.45;;
32329;SDS011;18807;52.434;13.238;2024-03-06T06:05:48;21.15;;;12.65;;
32329;SDS011;18807;52.434;13.238;2024-03-06T06:13:22;25.55;;;13.38;;
32329;SDS011;18807;52.434;13.238;2024-03-06T06:20:58;23.67;;;11.88;;
32329;SDS011;18807;52.434;13.238;2024-03-06T06:28:32;20.85;;;12.23;;
32329;SDS011;18807;52.434;13.238;2024-03-06T06:36:08;24.30;;;12.02;;
32329;SDS011;18807;52.434;13.238;2024-03-06T06:43:42;21.85;;;13.10;;
32329;SDS011;18807;52.434;13.238;2024-03-06T06:51:17;23.40;;;12.52;;
32329;SDS011;18807;52.434;13.238;2024-03-06T06:58:51;24.98;;;13.75;;
32329;SDS011;18807;52.434;13.238;2024-03-06T07:14:01;26.25;;;14.15;;
32329;SDS011;18807;52.434;13.238;2024-03-06T07:21:35;27.92;;;14.75;;
32329;SDS011;18807;52.434;13.238;2024-03-06T07:29:11;28.33;;;16.35;;
32329;SDS011;18807;52.434;13.238;2024-03-06T07:36:47;33.58;;;17.52;;
32329;SDS011;18807;52.434;13.238;2024-03-06T07:51:58;38.35;;;20.17;;
32329;SDS011;18807;52.434;13.238;2024-03-06T07:59:32;38.00;;;20.33;;
32329;SDS011;18807;52.434;13.238;2024-03-06T08:14:42;31.55;;;17.60;;
32329;SDS011;18807;52.434;13.238;2024-03-06T08:22:16;35.50;;;18.05;;
32329;SDS011;18807;52.434;13.238;2024-03-06T08:29:52;30.25;;;15.80;;
32329;SDS011;18807;52.434;13.238;2024-03-06T08:37:26;26.40;;;14.77;;
32329;SDS011;18807;52.434;13.238;2024-03-06T08:45:02;23.08;;;12.73;;
32329;SDS011;18807;52.434;13.238;2024-03-06T08:52:36;23.60;;;13.68;;
32329;SDS011;18807;52.434;13.238;2024-03-06T09:00:13;19.83;;;11.40;;
32329;SDS011;18807;52.434;13.238;2024-03-06T09:07:49;17.08;;;11.05;;
32329;SDS011;18807;52.434;13.238;2024-03-06T09:15:25;20.80;;;10.70;;
32329;SDS011;18807;52.434;13.238;2024-03-06T09:22:59;21.65;;;11.90;;
32329;SDS011;18807;52.434;13.238;2024-03-06T09:30:35;13.27;;;7.82;;
32329;SDS011;18807;52.434;13.238;2024-03-06T09:38:09;12.27;;;7.47;;
32329;SDS011;18807;52.434;13.238;2024-03-06T09:45:45;8.80;;;5.85;;
32329;SDS011;18807;52.434;13.238;2024-03-06T09:53:22;10.90;;;6.50;;
32329;SDS011;18807;52.434;13.238;2024-03-06T10:00:58;8.52;;;5.80;;
32329;SDS011;18807;52.434;13.238;2024-03-06T10:08:33;10.65;;;7.60;;
32329;SDS011;18807;52.434;13.238;2024-03-06T10:16:08;13.07;;;8.60;;
32329;SDS011;18807;52.434;13.238;2024-03-06T10:23:44;12.13;;;7.95;;
32329;SDS011;18807;52.434;13.238;2024-03-06T10:31:27;10.60;;;7.75;;
32329;SDS011;18807;52.434;13.238;2024-03-06T10:39:01;10.23;;;7.97;;
32329;SDS011;18807;52.434;13.238;2024-03-06T10:46:39;14.40;;;8.47;;
32329;SDS011;18807;52.434;13.238;2024-03-06T10:54:14;8.35;;;6.22;;
32329;SDS011;18807;52.434;13.238;2024-03-06T11:01:51;9.80;;;7.20;;
32329;SDS011;18807;52.434;13.238;2024-03-06T11:09:25;13.93;;;8.65;;
32329;SDS011;18807;52.434;13.238;2024-03-06T11:17:02;11.10;;;7.43;;
32329;SDS011;18807;52.434;13.238;2024-03-06T11:24:37;10.43;;;6.55;;
32329;SDS011;18807;52.434;13.238;2024-03-06T11:32:14;11.18;;;7.78;;
32329;SDS011;18807;52.434;13.238;2024-03-06T11:39:48;17.30;;;7.72;;
32329;SDS011;18807;52.434;13.238;2024-03-06T11:47:24;12.47;;;8.17;;
32329;SDS011;18807;52.434;13.238;2024-03-06T11:54:58;12.63;;;6.00;;
32329;SDS011;18807;52.434;13.238;2024-03-06T12:02:34;11.97;;;7.17;;
32329;SDS011;18807;52.434;13.238;2024-03-06T12:10:10;11.23;;;7.15;;
32329;SDS011;18807;52.434;13.238;2024-03-06T12:17:46;9.83;;;6.73;;
32329;SDS011;18807;52.434;13.238;2024-03-06T12:25:22;12.10;;;6.38;;
32329;SDS011;18807;52.434;13.238;2024-03-06T12:32:58;10.30;;;7.07;;
32329;SDS011;18807;52.434;13.238;2024-03-06T12:40:32;16.60;;;11.38;;
32329;SDS011;18807;52.434;13.238;2024-03-06T12:48:08;14.88;;;10.88;;
32329;SDS011;18807;52.434;13.238;2024-03-06T12:55:42;14.82;;;10.27;;
32329;SDS011;18807;52.434;13.238;2024-03-06T13:03:22;18.02;;;12.27;;
32329;SDS011;18807;52.434;13.238;2024-03-06T13:10:55;14.90;;;10.52;;
32329;SDS011;18807;52.434;13.238;2024-03-06T13:18:31;12.68;;;9.15;;
32329;SDS011;18807;52.434;13.238;2024-03-06T13:26:05;12.30;;;8.48;;
32329;SDS011;18807;52.434;13.238;2024-03-06T13:33:40;13.67;;;9.73;;
32329;SDS011;18807;52.434;13.238;2024-03-06T13:41:14;14.20;;;9.02;;
32329;SDS011;18807;52.434;13.238;2024-03-06T13:48:50;12.50;;;9.10;;
32329;SDS011;18807;52.434;13.238;2024-03-06T13:56:24;14.57;;;10.15;;
32329;SDS011;18807;52.434;13.238;2024-03-06T14:04:00;16.37;;;9.70;;
32329;SDS011;18807;52.434;13.238;2024-03-06T14:11:36;19.77;;;11.48;;
32329;SDS011;18807;52.434;13.238;2024-03-06T14:19:12;22.55;;;11.32;;
32329;SDS011;18807;52.434;13.238;2024-03-06T14:26:46;22.48;;;11.30;;
32329;SDS011;18807;52.434;13.238;2024-03-06T14:34:24;27.63;;;14.25;;
32329;SDS011;18807;52.434;13.238;2024-03-06T14:41:58;20.67;;;11.38;;
32329;SDS011;18807;52.434;13.238;2024-03-06T14:49:33;18.27;;;10.77;;
32329;SDS011;18807;52.434;13.238;2024-03-06T14:57:07;19.50;;;12.10;;
32329;SDS011;18807;52.434;13.238;2024-03-06T15:04:43;17.67;;;11.18;;
32329;SDS011;18807;52.434;13.238;2024-03-06T15:12:17;25.40;;;14.68;;
32329;SDS011;18807;52.434;13.238;2024-03-06T15:19:52;33.47;;;16.17;;
32329;SDS011;18807;52.434;13.238;2024-03-06T15:27:27;33.20;;;16.65;;
32329;SDS011;18807;52.434;13.238;2024-03-06T15:35:04;26.67;;;14.10;;
32329;SDS011;18807;52.434;13.238;2024-03-06T15:42:38;25.42;;;14.60;;
32329;SDS011;18807;52.434;13.238;2024-03-06T15:50:14;27.25;;;14.18;;
32329;SDS011;18807;52.434;13.238;2024-03-06T15:57:48;26.27;;;13.00;;
32329;SDS011;18807;52.434;13.238;2024-03-06T16:05:23;25.15;;;12.90;;
32329;SDS011;18807;52.434;13.238;2024-03-06T16:12:57;21.83;;;11.30;;
32329;SDS011;18807;52.434;13.238;2024-03-06T16:20:32;15.93;;;9.85;;
32329;SDS011;18807;52.434;13.238;2024-03-06T16:28:06;16.13;;;9.45;;
32329;SDS011;18807;52.434;13.238;2024-03-06T16:35:41;21.85;;;11.63;;
32329;SDS011;18807;52.434;13.238;2024-03-06T16:43:15;25.38;;;13.00;;
32329;SDS011;18807;52.434;13.238;2024-03-06T16:50:50;24.17;;;12.93;;
32329;SDS011;18807;52.434;13.238;2024-03-06T16:58:24;27.13;;;14.27;;
32329;SDS011;18807;52.434;13.238;2024-03-06T17:05:59;20.77;;;11.95;;
32329;SDS011;18807;52.434;13.238;2024-03-06T17:13:33;27.23;;;13.05;;
32329;SDS011;18807;52.434;13.238;2024-03-06T17:21:15;21.05;;;12.45;;
32329;SDS011;18807;52.434;13.238;2024-03-06T17:28:49;20.15;;;11.32;;
32329;SDS011;18807;52.434;13.238;2024-03-06T17:36:25;18.23;;;11.98;;
32329;SDS011;18807;52.434;13.238;2024-03-06T17:43:59;15.63;;;10.68;;
32329;SDS011;18807;52.434;13.238;2024-03-06T17:51:34;18.20;;;11.82;;
32329;SDS011;18807;52.434;13.238;2024-03-06T17:59:08;15.82;;;9.95;;
32329;SDS011;18807;52.434;13.238;2024-03-06T18:06:45;14.88;;;10.07;;
32329;SDS011;18807;52.434;13.238;2024-03-06T18:14:19;18.77;;;11.65;;
32329;SDS011;18807;52.434;13.238;2024-03-06T18:21:54;19.93;;;11.27;;
32329;SDS011;18807;52.434;13.238;2024-03-06T18:29:29;20.25;;;11.98;;
32329;SDS011;18807;52.434;13.238;2024-03-06T18:37:04;17.75;;;12.00;;
32329;SDS011;18807;52.434;13.238;2024-03-06T18:44:39;16.15;;;11.50;;
32329;SDS011;18807;52.434;13.238;2024-03-06T18:52:14;19.30;;;11.77;;
32329;SDS011;18807;52.434;13.238;2024-03-06T18:59:49;19.35;;;13.00;;
32329;SDS011;18807;52.434;13.238;2024-03-06T19:07:27;20.77;;;12.60;;
32329;SDS011;18807;52.434;13.238;2024-03-06T19:15:00;18.65;;;12.52;;
32329;SDS011;18807;52.434;13.238;2024-03-06T19:22:35;22.90;;;13.63;;
32329;SDS011;18807;52.434;13.238;2024-03-06T19:30:10;19.92;;;13.63;;
32329;SDS011;18807;52.434;13.238;2024-03-06T19:37:45;19.45;;;13.73;;
32329;SDS011;18807;52.434;13.238;2024-03-06T19:45:19;22.33;;;13.05;;
32329;SDS011;18807;52.434;13.238;2024-03-06T19:52:54;23.52;;;14.05;;
32329;SDS011;18807;52.434;13.238;2024-03-06T20:00:28;27.08;;;15.98;;
32329;SDS011;18807;52.434;13.238;2024-03-06T20:08:05;25.23;;;15.57;;
32329;SDS011;18807;52.434;13.238;2024-03-06T20:15:40;26.70;;;16.00;;
32329;SDS011;18807;52.434;13.238;2024-03-06T20:23:15;28.17;;;16.33;;
32329;SDS011;18807;52.434;13.238;2024-03-06T20:30:50;40.55;;;22.23;;
32329;SDS011;18807;52.434;13.238;2024-03-06T20:38:26;36.08;;;19.80;;
32329;SDS011;18807;52.434;13.238;2024-03-06T20:46:00;40.13;;;21.25;;
32329;SDS011;18807;52.434;13.238;2024-03-06T20:53:35;41.00;;;23.00;;
32329;SDS011;18807;52.434;13.238;2024-03-06T21:01:09;33.17;;;20.70;;
32329;SDS011;18807;52.434;13.238;2024-03-06T21:08:45;45.17;;;22.13;;
32329;SDS011;18807;52.434;13.238;2024-03-06T21:16:19;38.78;;;19.45;;
32329;SDS011;18807;52.434;13.238;2024-03-06T21:23:54;35.70;;;20.10;;
32329;SDS011;18807;52.434;13.238;2024-03-06T21:31:28;40.85;;;21.70;;
32329;SDS011;18807;52.434;13.238;2024-03-06T21:39:03;49.42;;;24.23;;
32329;SDS011;18807;52.434;13.238;2024-03-06T21:46:39;48.83;;;21.85;;
32329;SDS011;18807;52.434;13.238;2024-03-06T21:54:14;43.20;;;22.25;;
32329;SDS011;18807;52.434;13.238;2024-03-06T22:01:48;53.25;;;23.80;;
32329;SDS011;18807;52.434;13.238;2024-03-06T22:09:23;63.17;;;27.23;;
32329;SDS011;18807;52.434;13.238;2024-03-06T22:16:57;50.33;;;23.88;;
32329;SDS011;18807;52.434;13.238;2024-03-06T22:24:32;66.20;;;27.27;;
32329;SDS011;18807;52.434;13.238;2024-03-06T22:32:06;50.83;;;24.77;;
32329;SDS011;18807;52.434;13.238;2024-03-06T22:39:41;60.40;;;24.65;;
32329;SDS011;18807;52.434;13.238;2024-03-06T22:47:14;57.35;;;27.00;;
32329;SDS011;18807;52.434;13.238;2024-03-06T22:54:49;70.38;;;28.80;;
32329;SDS011;18807;52.434;13.238;2024-03-06T23:02:23;59.03;;;24.98;;
32329;SDS011;18807;52.434;13.238;2024-03-06T23:09:58;73.75;;;27.88;;
32329;SDS011;18807;52.434;13.238;2024-03-06T23:17:36;59.38;;;27.45;;
32329;SDS011;18807;52.434;13.238;2024-03-06T23:25:11;75.83;;;28.03;;
32329;SDS011;18807;52.434;13.238;2024-03-06T23:32:45;62.00;;;26.40;;
32329;SDS011;18807;52.434;13.238;2024-03-06T23:40:21;75.63;;;30.63;;
32329;SDS011;18807;52.434;13.238;2024-03-06T23:47:55;67.82;;;27.10;;
32329;SDS011;18807;52.434;13.238;2024-03-06T23:55:30;84.20;;;32.87;;
